Time;durP1;ratioP1;P1;durP2;ratioP2;P2;SDS_P1;SDS_P2;PMS_P1;PMS_P2;Temp;Humidity;BMP_temperature;BMP_pressure;BME280_temperature;BME280_humidity;BME280_pressure;Samples;Min_cycle;Max_cycle;Signal;HPM_P1;HPM_P2
2022/10/30 00:00:19;;;;;;;13.03;4.10;;;14.80;99.90;;;;;;5052275;28;20213;-57
2022/10/30 00:02:46;;;;;;;10.17;4.10;;;14.80;99.90;;;;;;5052014;28;20226;-56
2022/10/30 00:05:13;;;;;;;11.13;3.67;;;14.80;99.90;;;;;;5052291;28;20205;-57
2022/10/30 00:07:40;;;;;;;9.87;3.53;;;14.70;99.90;;;;;;5052441;28;20204;-57
2022/10/30 00:10:09;;;;;;;12.53;4.40;;;14.70;99.90;;;;;;5051701;28;20588;-57
2022/10/30 00:12:36;;;;;;;18.17;4.37;;;14.70;99.90;;;;;;5052086;28;20237;-56
2022/10/30 00:15:03;;;;;;;13.30;4.00;;;14.80;99.90;;;;;;5052431;28;20534;-56
2022/10/30 00:17:30;;;;;;;8.30;3.33;;;14.80;99.90;;;;;;5052037;28;20230;-56
2022/10/30 00:19:56;;;;;;;12.97;3.50;;;14.90;99.90;;;;;;5051391;28;20213;-59
2022/10/30 00:22:23;;;;;;;9.17;3.90;;;15.00;99.90;;;;;;5052038;28;20609;-57
2022/10/30 00:24:50;;;;;;;14.63;4.37;;;15.00;99.90;;;;;;5052036;28;20208;-56
2022/10/30 00:27:19;;;;;;;10.37;3.93;;;15.10;99.90;;;;;;5052013;28;20575;-56
2022/10/30 00:29:45;;;;;;;12.27;3.57;;;15.10;99.90;;;;;;5051642;28;20292;-57
2022/10/30 00:32:12;;;;;;;10.17;3.73;;;15.20;99.90;;;;;;5052349;28;20244;-56
2022/10/30 00:34:39;;;;;;;10.27;3.80;;;15.20;99.90;;;;;;5052177;28;20215;-56
2022/10/30 00:37:06;;;;;;;13.63;3.87;;;15.20;99.90;;;;;;5052168;28;20226;-56
2022/10/30 00:39:32;;;;;;;11.77;3.87;;;15.20;99.90;;;;;;5051519;28;20217;-56
2022/10/30 00:41:59;;;;;;;8.00;3.63;;;15.20;99.90;;;;;;5052035;28;20236;-56
2022/10/30 00:44:36;;;;;;;10.50;3.77;;;15.10;99.90;;;;;;5052096;28;20692;-56
2022/10/30 00:47:07;;;;;;;11.17;3.70;;;15.20;99.90;;;;;;5052049;28;20209;-56
2022/10/30 00:49:37;;;;;;;9.77;3.87;;;15.10;99.90;;;;;;5051454;28;20209;-56
2022/10/30 00:52:06;;;;;;;13.93;3.67;;;15.10;99.90;;;;;;5051531;28;20238;-56
2022/10/30 00:54:34;;;;;;;12.37;3.73;;;15.10;99.90;;;;;;5051806;28;20205;-56
2022/10/30 00:57:02;;;;;;;13.05;4.63;;;15.10;99.90;;;;;;5051704;28;20229;-56
2022/10/30 00:59:32;;;;;;;11.03;5.57;;;15.00;99.90;;;;;;5051422;28;20558;-59
2022/10/30 01:02:02;;;;;;;12.10;5.03;;;14.90;99.90;;;;;;5052154;28;20226;-56
2022/10/30 01:04:31;;;;;;;10.33;5.30;;;14.80;99.90;;;;;;5051817;28;20206;-56
2022/10/30 01:07:00;;;;;;;15.23;5.80;;;14.90;99.90;;;;;;5051621;28;20202;-56
2022/10/30 01:09:27;;;;;;;12.70;5.57;;;14.80;99.90;;;;;;5054811;28;20209;-56
2022/10/30 01:11:56;;;;;;;13.57;5.77;;;14.80;99.90;;;;;;5055317;28;20604;-56
2022/10/30 01:14:24;;;;;;;12.60;5.60;;;14.80;99.90;;;;;;5055453;28;20212;-57
2022/10/30 01:17:11;;;;;;;17.52;6.85;;;14.70;99.90;;;;;;5054989;28;20244;-57
2022/10/30 01:19:45;;;;;;;16.93;5.77;;;14.80;99.90;;;;;;5054359;28;20205;-57
2022/10/30 01:22:27;;;;;;;16.63;6.13;;;14.80;99.90;;;;;;5055500;28;20256;-56
2022/10/30 01:25:05;;;;;;;14.03;6.43;;;14.80;99.90;;;;;;5055089;28;20217;-57
2022/10/30 01:27:39;;;;;;;13.83;6.43;;;14.80;99.90;;;;;;5054934;28;20209;-57
2022/10/30 01:30:16;;;;;;;11.90;5.13;;;14.80;99.90;;;;;;5054355;28;20296;-57
2022/10/30 01:32:59;;;;;;;14.67;6.20;;;14.80;99.90;;;;;;5055185;28;20233;-57
2022/10/30 01:35:32;;;;;;;16.83;5.43;;;14.90;99.90;;;;;;5054988;28;20205;-56
2022/10/30 01:38:06;;;;;;;11.87;5.50;;;14.90;99.90;;;;;;5054506;28;20221;-57
2022/10/30 01:40:33;;;;;;;7.90;5.17;;;14.90;99.90;;;;;;5055250;28;20205;-57
2022/10/30 01:43:00;;;;;;;8.87;5.70;;;15.00;99.90;;;;;;5055369;28;20233;-56
2022/10/30 01:45:46;;;;;;;13.43;5.83;;;15.00;99.90;;;;;;5055525;28;20209;-56
2022/10/30 01:48:37;;;;;;;17.73;5.43;;;14.90;99.90;;;;;;5055049;28;20205;-57
2022/10/30 01:51:12;;;;;;;10.00;4.47;;;14.80;99.90;;;;;;5055224;28;20228;-57
2022/10/30 01:53:51;;;;;;;8.67;4.10;;;14.70;99.90;;;;;;5094198;22;20225;-56
2022/10/30 01:56:28;;;;;;;12.00;3.70;;;14.70;99.90;;;;;;5053723;28;20696;-56
2022/10/30 01:59:07;;;;;;;10.30;4.33;;;14.70;99.90;;;;;;5053520;28;20205;-56
2022/10/30 02:01:35;;;;;;;12.30;4.20;;;14.60;99.90;;;;;;5053764;28;20217;-57
2022/10/30 02:04:04;;;;;;;10.10;4.33;;;14.60;99.90;;;;;;5053621;28;20610;-56
2022/10/30 02:06:31;;;;;;;11.13;4.07;;;14.50;99.90;;;;;;5053554;28;20209;-56
2022/10/30 02:08:57;;;;;;;10.40;3.67;;;14.50;99.90;;;;;;5052847;28;20209;-57
2022/10/30 02:11:26;;;;;;;9.40;3.80;;;14.50;99.90;;;;;;5053284;28;20697;-57
2022/10/30 02:13:56;;;;;;;11.70;3.90;;;14.50;99.90;;;;;;5053084;28;20226;-56
2022/10/30 02:16:23;;;;;;;6.00;3.43;;;14.50;99.90;;;;;;5053405;28;20206;-56
2022/10/30 02:18:50;;;;;;;7.77;3.63;;;14.60;99.90;;;;;;5051533;28;20704;-57
2022/10/30 02:21:18;;;;;;;7.40;3.70;;;14.60;99.90;;;;;;5053114;28;20236;-59
2022/10/30 02:23:45;;;;;;;11.63;4.30;;;14.60;99.90;;;;;;5053178;28;20717;-57
2022/10/30 02:26:11;;;;;;;12.53;4.33;;;14.70;99.90;;;;;;5053151;28;20213;-56
2022/10/30 02:28:38;;;;;;;7.40;3.67;;;14.70;99.90;;;;;;5052790;28;20198;-56
2022/10/30 02:31:05;;;;;;;8.60;4.17;;;14.70;99.90;;;;;;5053031;28;20209;-57
2022/10/30 02:33:32;;;;;;;11.10;4.47;;;14.80;99.90;;;;;;5052998;28;20287;-56
2022/10/30 02:35:58;;;;;;;13.57;3.70;;;14.80;99.90;;;;;;5052879;28;20220;-57
2022/10/30 02:38:26;;;;;;;12.00;3.90;;;14.90;99.90;;;;;;5052161;28;20221;-58
2022/10/30 02:40:53;;;;;;;10.23;4.03;;;14.90;99.90;;;;;;5052607;28;20205;-57
2022/10/30 02:43:20;;;;;;;10.07;3.87;;;14.90;99.90;;;;;;5053240;28;20566;-55
2022/10/30 02:45:50;;;;;;;15.67;4.30;;;15.00;99.90;;;;;;5052765;28;20220;-57
2022/10/30 02:48:17;;;;;;;7.50;3.20;;;15.10;99.90;;;;;;5052232;28;20593;-55
2022/10/30 02:50:44;;;;;;;9.60;3.60;;;15.00;99.90;;;;;;5052607;28;20209;-57
2022/10/30 02:53:10;;;;;;;8.97;3.83;;;15.10;99.90;;;;;;5052438;28;20233;-56
2022/10/30 02:55:38;;;;;;;13.80;3.67;;;15.10;99.90;;;;;;5052356;28;20263;-56
2022/10/30 02:58:05;;;;;;;12.20;3.67;;;15.10;99.90;;;;;;5051664;28;20632;-55
2022/10/30 03:00:32;;;;;;;14.53;3.80;;;15.10;99.90;;;;;;5052536;28;20206;-57
2022/10/30 03:02:59;;;;;;;12.80;3.40;;;15.00;99.90;;;;;;5052192;28;20717;-56
2022/10/30 03:05:26;;;;;;;11.70;3.53;;;15.00;99.90;;;;;;5052369;28;20216;-55
2022/10/30 03:07:54;;;;;;;8.93;3.47;;;15.10;99.90;;;;;;5051953;28;20674;-57
2022/10/30 03:10:21;;;;;;;11.97;3.60;;;15.00;99.90;;;;;;5051438;28;20209;-55
2022/10/30 03:12:49;;;;;;;16.30;4.47;;;15.00;99.90;;;;;;5052297;28;20233;-55
2022/10/30 03:15:16;;;;;;;13.27;3.63;;;15.00;99.90;;;;;;5052258;28;20485;-56
2022/10/30 03:17:43;;;;;;;10.07;3.73;;;15.00;99.90;;;;;;5052090;28;20317;-56
2022/10/30 03:20:10;;;;;;;9.43;3.80;;;15.00;99.90;;;;;;5051426;28;20205;-56
2022/10/30 03:22:37;;;;;;;10.87;3.10;;;15.00;99.90;;;;;;5051841;28;20229;-56
2022/10/30 03:25:04;;;;;;;6.83;3.27;;;15.00;99.90;;;;;;5052219;28;20205;-56
2022/10/30 03:27:31;;;;;;;8.60;3.90;;;14.90;99.90;;;;;;5052072;28;20202;-56
2022/10/30 03:29:59;;;;;;;14.00;3.60;;;14.90;99.90;;;;;;5051043;28;20240;-55
2022/10/30 03:32:26;;;;;;;13.80;3.30;;;14.90;99.90;;;;;;5051762;28;20368;-55
2022/10/30 03:34:53;;;;;;;9.80;3.80;;;14.90;99.90;;;;;;5051709;28;20209;-57
2022/10/30 03:37:19;;;;;;;19.07;4.73;;;14.90;99.90;;;;;;5051566;28;20637;-56
2022/10/30 03:39:46;;;;;;;9.23;3.83;;;14.90;99.90;;;;;;5051303;28;20201;-56
2022/10/30 03:42:13;;;;;;;10.97;4.00;;;14.80;99.90;;;;;;5051480;28;20735;-55
2022/10/30 03:44:39;;;;;;;9.23;3.90;;;14.70;99.90;;;;;;5051673;28;20668;-56
2022/10/30 03:47:07;;;;;;;11.80;3.73;;;14.70;99.90;;;;;;5051709;28;20213;-56
2022/10/30 03:49:34;;;;;;;10.47;4.03;;;14.70;99.90;;;;;;5051509;28;20215;-55
2022/10/30 03:52:01;;;;;;;11.17;3.87;;;14.70;99.90;;;;;;5051395;28;20846;-56
2022/10/30 03:54:28;;;;;;;8.77;3.93;;;14.60;99.90;;;;;;5051773;28;20206;-56
2022/10/30 03:56:54;;;;;;;12.50;4.23;;;14.50;99.90;;;;;;5051670;28;20202;-56
2022/10/30 03:59:21;;;;;;;9.70;3.93;;;14.40;99.90;;;;;;5050780;28;20713;-58
2022/10/30 04:01:48;;;;;;;6.10;3.70;;;14.30;99.90;;;;;;5051916;28;20259;-56
2022/10/30 04:04:16;;;;;;;7.97;4.13;;;14.20;99.90;;;;;;5051388;28;20543;-56
2022/10/30 04:06:42;;;;;;;8.27;4.53;;;14.00;99.90;;;;;;5051401;28;20212;-56
2022/10/30 04:09:09;;;;;;;8.53;4.33;;;13.80;99.90;;;;;;5050947;28;20201;-58
2022/10/30 04:11:36;;;;;;;10.20;4.37;;;13.80;99.90;;;;;;5051595;28;20209;-56
2022/10/30 04:14:02;;;;;;;8.57;4.33;;;13.70;99.90;;;;;;5051385;28;20225;-55
2022/10/30 04:16:29;;;;;;;6.97;4.03;;;13.70;99.90;;;;;;5051408;28;20608;-56
2022/10/30 04:18:56;;;;;;;11.57;4.00;;;13.70;99.90;;;;;;5050482;28;20228;-57
2022/10/30 04:21:24;;;;;;;7.70;4.30;;;13.70;99.90;;;;;;5051188;28;20207;-56
2022/10/30 04:23:52;;;;;;;11.13;4.20;;;13.70;99.90;;;;;;5051270;28;20287;-57
2022/10/30 04:26:19;;;;;;;15.80;4.47;;;13.70;99.90;;;;;;5051038;28;20669;-55
2022/10/30 04:28:47;;;;;;;9.00;4.07;;;13.70;99.90;;;;;;5050465;28;20210;-56
2022/10/30 04:31:14;;;;;;;6.27;3.77;;;13.70;99.90;;;;;;5051019;28;20209;-56
2022/10/30 04:33:41;;;;;;;8.87;4.27;;;13.70;99.90;;;;;;5051267;28;20225;-56
2022/10/30 04:36:08;;;;;;;12.27;4.50;;;13.60;99.90;;;;;;5051289;28;20590;-55
2022/10/30 04:38:36;;;;;;;9.43;4.47;;;13.60;99.90;;;;;;5050165;28;20709;-56
2022/10/30 04:41:03;;;;;;;8.93;4.10;;;13.50;99.90;;;;;;5050935;28;20677;-56
2022/10/30 04:43:30;;;;;;;9.50;4.27;;;13.50;99.90;;;;;;5053256;28;20221;-55
2022/10/30 04:45:56;;;;;;;11.40;4.53;;;13.50;99.90;;;;;;5054565;28;20253;-56
2022/10/30 04:48:23;;;;;;;11.23;4.20;;;13.50;99.90;;;;;;5054366;28;20201;-56
2022/10/30 04:50:50;;;;;;;11.43;4.10;;;13.50;99.90;;;;;;5054761;28;20209;-56
2022/10/30 04:53:18;;;;;;;14.17;4.53;;;13.50;99.90;;;;;;5054616;28;20229;-58
2022/10/30 04:55:46;;;;;;;12.37;4.07;;;13.50;99.90;;;;;;5054689;28;20209;-57
2022/10/30 04:58:13;;;;;;;8.67;3.90;;;13.40;99.90;;;;;;5054434;28;20632;-57
2022/10/30 05:00:41;;;;;;;14.50;3.93;;;13.40;99.90;;;;;;5054608;28;20216;-56
2022/10/30 05:03:08;;;;;;;16.13;4.17;;;13.40;99.90;;;;;;5054904;28;20279;-57
2022/10/30 05:05:35;;;;;;;13.77;4.20;;;13.50;99.90;;;;;;5054651;28;20213;-57
2022/10/30 05:08:01;;;;;;;10.03;3.97;;;13.40;99.90;;;;;;5054431;28;20248;-56
2022/10/30 05:10:28;;;;;;;9.57;3.83;;;13.50;99.90;;;;;;5053872;28;20213;-55
2022/10/30 05:12:58;;;;;;;10.53;4.07;;;13.40;99.90;;;;;;5054259;28;20236;-57
2022/10/30 05:15:25;;;;;;;13.13;4.20;;;13.40;99.90;;;;;;5054445;28;20665;-56
2022/10/30 05:17:53;;;;;;;12.83;4.37;;;13.40;99.90;;;;;;5054251;28;20693;-55
2022/10/30 05:20:20;;;;;;;10.80;3.97;;;13.40;99.90;;;;;;5053722;28;20665;-56
2022/10/30 05:22:53;;;;;;;9.80;3.97;;;13.50;99.90;;;;;;5054195;28;20713;-56
2022/10/30 05:25:20;;;;;;;11.43;4.00;;;13.40;99.90;;;;;;5054286;28;20202;-56
2022/10/30 05:27:46;;;;;;;12.40;5.00;;;13.50;99.90;;;;;;5054108;28;20213;-55
2022/10/30 05:30:15;;;;;;;12.40;5.33;;;13.40;99.90;;;;;;5053731;28;20205;-55
2022/10/30 05:32:41;;;;;;;10.47;4.70;;;13.50;99.90;;;;;;5054437;28;20292;-58
2022/10/30 05:35:08;;;;;;;9.37;4.30;;;13.40;99.90;;;;;;5054596;28;20205;-56
2022/10/30 05:37:35;;;;;;;10.57;4.50;;;13.40;99.90;;;;;;5054537;28;20473;-55
2022/10/30 05:40:02;;;;;;;15.40;7.63;;;13.30;99.90;;;;;;5053783;28;20205;-55
2022/10/30 05:42:29;;;;;;;11.80;4.10;;;13.30;99.90;;;;;;5054433;28;20237;-55
2022/10/30 05:44:55;;;;;;;13.07;4.07;;;13.30;99.90;;;;;;5054388;28;20229;-54
2022/10/30 05:47:23;;;;;;;10.80;4.10;;;13.20;99.90;;;;;;5053938;28;20209;-55
2022/10/30 05:49:50;;;;;;;10.67;4.10;;;13.20;99.90;;;;;;5053363;28;20202;-55
2022/10/30 05:52:17;;;;;;;12.07;4.23;;;13.20;99.90;;;;;;5054072;28;20236;-55
2022/10/30 05:54:43;;;;;;;7.80;3.83;;;13.20;99.90;;;;;;5053497;28;20220;-55
2022/10/30 05:57:10;;;;;;;12.03;4.07;;;13.20;99.90;;;;;;5053478;28;20669;-56
2022/10/30 05:59:37;;;;;;;12.80;4.30;;;13.20;99.90;;;;;;5053086;28;20225;-56
2022/10/30 06:02:04;;;;;;;7.33;4.17;;;13.20;99.90;;;;;;5053536;28;20277;-58
2022/10/30 06:04:32;;;;;;;15.73;4.03;;;13.20;99.90;;;;;;5053745;28;20220;-55
2022/10/30 06:06:59;;;;;;;8.40;3.90;;;13.20;99.90;;;;;;5053481;28;20240;-55
2022/10/30 06:09:25;;;;;;;11.47;4.13;;;13.20;99.90;;;;;;5052900;28;20202;-55
2022/10/30 06:11:53;;;;;;;13.43;4.67;;;13.20;99.90;;;;;;5053316;28;20263;-55
2022/10/30 06:14:20;;;;;;;11.90;4.20;;;13.20;99.90;;;;;;5053456;28;20213;-55
2022/10/30 06:16:46;;;;;;;11.23;4.00;;;13.20;99.90;;;;;;5053162;28;20216;-57
2022/10/30 06:19:13;;;;;;;8.33;3.83;;;13.20;99.90;;;;;;5052612;28;20225;-55
2022/10/30 06:21:41;;;;;;;9.87;4.07;;;13.30;99.90;;;;;;5052980;28;20715;-55
2022/10/30 06:24:08;;;;;;;11.43;3.80;;;13.30;99.90;;;;;;5053177;28;20669;-55
2022/10/30 06:26:35;;;;;;;7.83;3.43;;;13.30;99.90;;;;;;5053494;28;20201;-55
2022/10/30 06:29:02;;;;;;;11.10;3.80;;;13.40;99.90;;;;;;5053531;28;20202;-56
2022/10/30 06:31:28;;;;;;;13.97;4.50;;;13.40;99.90;;;;;;5053215;28;20251;-55
2022/10/30 06:33:55;;;;;;;11.20;4.53;;;13.50;99.90;;;;;;5052953;28;20233;-56
2022/10/30 06:36:22;;;;;;;14.73;4.70;;;13.50;99.90;;;;;;5052792;28;20619;-55
2022/10/30 06:38:50;;;;;;;9.50;4.33;;;13.60;99.90;;;;;;5052390;28;20229;-55
2022/10/30 06:41:17;;;;;;;13.23;4.47;;;13.60;99.90;;;;;;5052899;28;20206;-55
2022/10/30 06:43:43;;;;;;;12.20;4.33;;;13.70;99.90;;;;;;5053013;28;20645;-56
2022/10/30 06:46:10;;;;;;;15.53;4.47;;;13.80;99.90;;;;;;5052855;28;20216;-55
2022/10/30 06:48:37;;;;;;;10.93;3.77;;;13.90;99.90;;;;;;5052133;28;20205;-55
2022/10/30 06:51:03;;;;;;;14.67;5.00;;;14.20;99.90;;;;;;5052976;28;20206;-56
2022/10/30 06:53:30;;;;;;;8.93;4.13;;;14.50;99.90;;;;;;5052483;28;20233;-56
2022/10/30 06:55:59;;;;;;;10.70;4.23;;;14.80;99.90;;;;;;5052813;28;20209;-55
2022/10/30 06:58:27;;;;;;;9.10;3.90;;;15.00;99.90;;;;;;5052004;28;20229;-57
2022/10/30 07:00:54;;;;;;;9.50;4.00;;;15.20;99.90;;;;;;5052591;28;20205;-54
2022/10/30 07:03:21;;;;;;;10.83;4.00;;;15.30;99.90;;;;;;5052235;28;20232;-54
2022/10/30 07:05:48;;;;;;;10.77;3.73;;;15.20;99.90;;;;;;5052055;28;20214;-54
2022/10/30 07:08:14;;;;;;;9.13;3.67;;;15.10;99.90;;;;;;5052503;28;20213;-54
2022/10/30 07:10:41;;;;;;;13.67;4.10;;;15.10;99.90;;;;;;5051537;28;20202;-54
2022/10/30 07:13:09;;;;;;;10.70;3.90;;;15.10;99.90;;;;;;5052193;28;20237;-55
2022/10/30 07:15:36;;;;;;;11.53;3.77;;;15.10;99.90;;;;;;5052735;28;20201;-55
2022/10/30 07:18:04;;;;;;;11.33;4.13;;;15.20;99.90;;;;;;5052154;28;20661;-54
2022/10/30 07:20:33;;;;;;;13.80;3.77;;;15.30;99.90;;;;;;5051768;28;20225;-54
2022/10/30 07:23:00;;;;;;;11.77;4.33;;;15.40;99.90;;;;;;5052108;28;20244;-54
2022/10/30 07:25:27;;;;;;;7.47;3.30;;;15.50;99.90;;;;;;5052255;28;20206;-54
2022/10/30 07:27:54;;;;;;;11.73;3.83;;;15.60;99.90;;;;;;5052310;28;20212;-54
2022/10/30 07:30:24;;;;;;;14.40;5.10;;;15.70;99.90;;;;;;5052118;28;20202;-54
2022/10/30 07:32:59;;;;;;;10.73;3.60;;;15.70;99.90;;;;;;5053092;28;20230;-55
2022/10/30 07:35:26;;;;;;;10.37;3.77;;;15.90;99.90;;;;;;5053094;28;20232;-56
2022/10/30 07:37:52;;;;;;;9.73;3.73;;;16.00;99.90;;;;;;5052759;28;20206;-56
2022/10/30 07:40:19;;;;;;;12.57;3.77;;;16.00;99.90;;;;;;5052344;28;20237;-55
2022/10/30 07:42:46;;;;;;;8.38;3.25;;;16.10;99.90;;;;;;5052527;28;20701;-54
2022/10/30 07:45:14;;;;;;;11.88;3.78;;;16.00;99.90;;;;;;5052966;28;20218;-54
2022/10/30 07:47:43;;;;;;;11.63;3.73;;;16.00;99.90;;;;;;5052277;28;20209;-55
2022/10/30 07:50:10;;;;;;;9.93;3.80;;;16.00;99.90;;;;;;5051823;28;20232;-55
2022/10/30 07:52:37;;;;;;;9.10;3.63;;;16.10;99.90;;;;;;5075959;22;20249;-62
2022/10/30 07:55:05;;;;;;;8.07;3.60;;;16.30;99.90;;;;;;5061717;28;20206;-62
2022/10/30 07:57:35;;;;;;;13.77;3.92;;;16.40;99.90;;;;;;5071798;28;20205;-62
2022/10/30 08:00:02;;;;;;;9.68;3.50;;;16.60;99.90;;;;;;5071500;28;20231;-62
2022/10/30 08:02:29;;;;;;;8.27;3.30;;;16.80;99.90;;;;;;5071980;28;20225;-62
2022/10/30 08:04:57;;;;;;;10.13;3.85;;;16.90;99.90;;;;;;5071897;28;20208;-62
2022/10/30 08:07:24;;;;;;;18.00;3.60;;;16.90;99.90;;;;;;5072105;28;20237;-62
2022/10/30 08:09:50;;;;;;;11.57;3.90;;;17.00;99.90;;;;;;5070894;28;20208;-62
2022/10/30 08:12:17;;;;;;;8.68;3.97;;;17.00;99.90;;;;;;5071859;28;20224;-63
2022/10/30 08:14:44;;;;;;;11.43;3.15;;;17.20;99.90;;;;;;5072451;28;20219;-62
2022/10/30 08:17:10;;;;;;;13.98;3.80;;;17.30;99.90;;;;;;5072617;28;20230;-62
2022/10/30 08:19:37;;;;;;;16.00;4.05;;;17.30;99.90;;;;;;5076216;28;20251;-61
2022/10/30 08:22:05;;;;;;;11.25;3.38;;;17.40;99.90;;;;;;5076245;28;20304;-61
2022/10/30 08:24:32;;;;;;;14.80;3.75;;;17.50;99.90;;;;;;5073455;28;20680;-61
2022/10/30 08:26:59;;;;;;;8.98;3.25;;;17.60;99.90;;;;;;5032453;28;20210;-61
2022/10/30 08:29:25;;;;;;;9.90;3.33;;;17.70;99.90;;;;;;5068041;28;20219;-63
2022/10/30 08:31:52;;;;;;;14.25;3.58;;;17.70;99.90;;;;;;5074803;28;20197;-64
2022/10/30 08:34:19;;;;;;;13.73;3.50;;;17.80;99.90;;;;;;5074577;28;20245;-68
2022/10/30 08:36:48;;;;;;;13.73;3.60;;;17.80;99.90;;;;;;5073967;28;20216;-67
2022/10/30 08:39:16;;;;;;;12.20;3.15;;;17.90;99.90;;;;;;5073646;28;20228;-66
2022/10/30 08:41:43;;;;;;;10.55;3.28;;;18.00;99.90;;;;;;5074564;28;20216;-64
2022/10/30 08:44:10;;;;;;;8.70;2.88;;;18.20;99.90;;;;;;5074821;28;20225;-63
2022/10/30 08:46:37;;;;;;;13.05;2.97;;;18.30;99.90;;;;;;5075401;28;20211;-63
2022/10/30 08:49:04;;;;;;;14.77;3.30;;;18.40;99.90;;;;;;5074758;28;20201;-64
2022/10/30 08:51:32;;;;;;;9.30;2.85;;;18.50;99.90;;;;;;5075269;28;20205;-63
2022/10/30 08:53:59;;;;;;;9.52;3.58;;;18.60;99.90;;;;;;5074963;28;20236;-64
2022/10/30 08:56:27;;;;;;;12.70;3.42;;;18.60;99.90;;;;;;5075375;28;20584;-63
2022/10/30 08:58:54;;;;;;;9.77;3.38;;;18.70;99.90;;;;;;5074823;28;20209;-63
2022/10/30 09:01:20;;;;;;;10.20;3.30;;;18.80;99.90;;;;;;5075249;28;20208;-64
2022/10/30 09:03:47;;;;;;;10.65;3.60;;;18.90;99.90;;;;;;5075133;28;20232;-64
2022/10/30 09:06:14;;;;;;;11.88;3.95;;;19.00;99.90;;;;;;5075028;28;20718;-64
2022/10/30 09:08:41;;;;;;;13.27;3.63;;;19.20;99.90;;;;;;5074876;28;20201;-63
2022/10/30 09:11:07;;;;;;;11.30;3.15;;;19.30;99.90;;;;;;5075632;28;20236;-65
2022/10/30 09:13:35;;;;;;;10.48;3.63;;;19.40;99.90;;;;;;5075210;28;20598;-64
2022/10/30 09:16:03;;;;;;;9.07;3.53;;;19.40;99.90;;;;;;5075353;28;20613;-64
2022/10/30 09:18:30;;;;;;;12.40;4.00;;;19.50;99.90;;;;;;5075512;28;20201;-62
2022/10/30 09:20:57;;;;;;;10.13;3.92;;;19.70;99.90;;;;;;5074348;28;20278;-62
2022/10/30 09:23:23;;;;;;;11.68;3.38;;;19.90;99.90;;;;;;5075013;28;20225;-62
2022/10/30 09:25:50;;;;;;;9.65;3.22;;;20.10;99.90;;;;;;5075176;28;20687;-62
2022/10/30 09:28:17;;;;;;;8.40;2.75;;;20.20;99.90;;;;;;5074412;28;20205;-62
2022/10/30 09:30:48;;;;;;;7.63;3.17;;;20.40;99.90;;;;;;5074694;28;20208;-63
2022/10/30 09:33:14;;;;;;;8.30;3.30;;;20.50;99.90;;;;;;5074133;28;20225;-64
2022/10/30 09:35:41;;;;;;;9.35;3.28;;;20.50;99.90;;;;;;5051166;28;20224;-65
2022/10/30 09:38:09;;;;;;;12.88;3.40;;;20.60;99.90;;;;;;5067729;28;20216;-66
2022/10/30 09:40:49;;;;;;;10.57;3.35;;;20.80;99.90;;;;;;5073289;28;20292;-65
2022/10/30 09:43:26;;;;;;;9.02;3.00;;;20.90;99.90;;;;;;5074137;28;20709;-64
2022/10/30 09:46:15;;;;;;;9.38;3.45;;;21.00;99.90;;;;;;5074688;28;20215;-63
2022/10/30 09:49:05;;;;;;;11.95;3.17;;;21.10;99.90;;;;;;5073405;28;20288;-67
2022/10/30 09:51:53;;;;;;;8.38;3.17;;;21.30;99.90;;;;;;5073971;28;20204;-64
2022/10/30 09:54:29;;;;;;;15.65;4.40;;;21.40;99.90;;;;;;5074145;28;20213;-64
2022/10/30 09:57:02;;;;;;;10.23;3.00;;;21.50;99.90;;;;;;5073076;28;20775;-63
2022/10/30 09:59:43;;;;;;;12.38;3.25;;;21.60;99.90;;;;;;5072945;28;20225;-63
2022/10/30 10:02:24;;;;;;;9.07;2.75;;;21.60;99.90;;;;;;5073187;28;20667;-63
2022/10/30 10:04:55;;;;;;;6.93;3.13;;;21.70;99.90;;;;;;5073608;28;20286;-63
2022/10/30 10:07:25;;;;;;;10.48;3.28;;;21.70;99.90;;;;;;5073025;28;20216;-62
2022/10/30 10:09:57;;;;;;;9.00;2.95;;;21.80;99.90;;;;;;5072664;28;20205;-66
2022/10/30 10:12:30;;;;;;;10.82;3.13;;;22.00;99.90;;;;;;5073601;28;20228;-65
2022/10/30 10:15:00;;;;;;;7.18;2.72;;;22.10;99.90;;;;;;5073118;28;20208;-63
2022/10/30 10:17:34;;;;;;;11.68;3.00;;;22.20;99.90;;;;;;5072919;28;20221;-63
2022/10/30 10:20:02;;;;;;;5.97;2.60;;;22.40;99.90;;;;;;5072540;28;20227;-65
2022/10/30 10:22:38;;;;;;;13.35;3.17;;;22.40;99.90;;;;;;5072579;28;20232;-61
2022/10/30 10:25:12;;;;;;;8.80;2.88;;;22.50;99.90;;;;;;5073943;28;20204;-62
2022/10/30 10:27:59;;;;;;;8.65;2.70;;;22.60;99.90;;;;;;5073782;28;20212;-62
2022/10/30 10:30:33;;;;;;;10.02;3.03;;;22.80;99.90;;;;;;5073379;28;20205;-63
2022/10/30 10:33:39;;;;;;;13.10;3.17;;;22.80;99.90;;;;;;5074108;28;20228;-63
2022/10/30 10:36:22;;;;;;;10.38;3.20;;;22.80;99.90;;;;;;5073977;28;20620;-63
2022/10/30 10:38:59;;;;;;;5.32;2.67;;;23.00;99.90;;;;;;5072934;28;20676;-63
2022/10/30 10:41:36;;;;;;;6.82;2.70;;;23.10;99.90;;;;;;5072770;28;20258;-63
2022/10/30 10:44:17;;;;;;;9.30;3.22;;;23.30;99.90;;;;;;5073550;28;20228;-63
2022/10/30 10:46:58;;;;;;;10.27;2.78;;;23.30;99.90;;;;;;5073577;28;20209;-62
2022/10/30 10:49:39;;;;;;;9.95;2.90;;;23.40;99.90;;;;;;5073699;28;20200;-62
2022/10/30 10:52:13;;;;;;;10.60;3.38;;;23.40;99.90;;;;;;5073912;28;20208;-62
2022/10/30 10:54:43;;;;;;;7.65;2.97;;;23.40;99.90;;;;;;5074021;28;20213;-62
2022/10/30 10:57:16;;;;;;;8.95;3.90;;;23.40;99.90;;;;;;5073482;28;20220;-62
2022/10/30 10:59:47;;;;;;;14.43;3.15;;;23.40;99.90;;;;;;5072597;28;20225;-63
2022/10/30 11:02:28;;;;;;;9.25;2.70;;;23.60;99.90;;;;;;5073073;28;20619;-62
2022/10/30 11:05:02;;;;;;;6.95;2.78;;;23.70;99.90;;;;;;5072952;28;20227;-62
2022/10/30 11:07:35;;;;;;;7.07;2.75;;;23.80;99.90;;;;;;5073570;28;20212;-63
2022/10/30 11:10:02;;;;;;;7.18;2.85;;;23.80;99.90;;;;;;5073136;28;20201;-62
2022/10/30 11:12:31;;;;;;;8.70;2.80;;;23.90;99.90;;;;;;5073560;28;20228;-60
2022/10/30 11:15:00;;;;;;;9.98;2.95;;;24.10;99.90;;;;;;5073385;28;20680;-62
2022/10/30 11:17:32;;;;;;;13.23;3.38;;;24.30;99.90;;;;;;5073002;28;20208;-63
2022/10/30 11:20:02;;;;;;;13.93;3.15;;;24.30;99.90;;;;;;5072318;28;20224;-64
2022/10/30 11:22:36;;;;;;;10.18;2.80;;;24.50;99.90;;;;;;5073263;28;20235;-64
2022/10/30 11:25:20;;;;;;;9.82;3.47;;;24.50;99.90;;;;;;5073255;28;20257;-60
2022/10/30 11:27:49;;;;;;;6.88;2.65;;;24.60;99.90;;;;;;5072950;28;20212;-60
2022/10/30 11:30:21;;;;;;;11.38;3.22;;;24.70;99.90;;;;;;5074817;28;20684;-61
2022/10/30 11:32:48;;;;;;;8.20;3.15;;;24.90;99.90;;;;;;5074469;28;20232;-64
2022/10/30 11:35:17;;;;;;;12.00;3.42;;;24.80;99.90;;;;;;5076382;28;20212;-63
2022/10/30 11:37:47;;;;;;;8.32;2.58;;;24.80;99.90;;;;;;5080671;28;20256;-63
2022/10/30 11:40:19;;;;;;;9.10;2.88;;;24.80;99.90;;;;;;5075430;28;20251;-63
2022/10/30 11:42:49;;;;;;;7.18;3.10;;;24.80;99.90;;;;;;5075842;28;20225;-63
2022/10/30 11:45:19;;;;;;;10.13;3.78;;;24.80;99.90;;;;;;5074948;28;20223;-60
2022/10/30 11:47:47;;;;;;;8.30;2.80;;;24.90;99.90;;;;;;5073152;28;20226;-64
2022/10/30 11:50:19;;;;;;;12.75;3.08;;;25.10;99.90;;;;;;5073011;28;20208;-62
2022/10/30 11:52:51;;;;;;;9.85;3.55;;;25.20;99.90;;;;;;5072927;28;20233;-63
2022/10/30 11:55:22;;;;;;;11.23;3.28;;;25.20;99.90;;;;;;5073886;28;20555;-61
2022/10/30 11:57:51;;;;;;;7.85;3.05;;;25.20;99.90;;;;;;5074295;28;20209;-61
2022/10/30 12:00:20;;;;;;;8.63;2.88;;;25.20;99.90;;;;;;5072386;28;20235;-62
2022/10/30 12:02:50;;;;;;;8.85;3.00;;;25.20;99.90;;;;;;5072931;28;20224;-62
2022/10/30 12:05:38;;;;;;;8.27;3.03;;;25.30;99.90;;;;;;5072302;28;20295;-62
2022/10/30 12:08:21;;;;;;;14.27;3.53;;;25.30;99.90;;;;;;5072013;28;20207;-62
2022/10/30 12:10:56;;;;;;;7.90;3.17;;;25.30;99.90;;;;;;5072245;28;20232;-62
2022/10/30 12:13:24;;;;;;;6.55;3.83;;;25.30;99.90;;;;;;5073018;28;20733;-62
2022/10/30 12:16:18;;;;;;;11.30;3.55;;;25.30;99.90;;;;;;5072398;28;20215;-62
2022/10/30 12:18:58;;;;;;;10.00;4.82;;;25.30;99.90;;;;;;5070249;28;20201;-62
2022/10/30 12:21:26;;;;;;;9.82;3.83;;;25.20;99.90;;;;;;5072012;28;20224;-62
2022/10/30 12:23:57;;;;;;;13.95;3.72;;;25.20;99.90;;;;;;5071807;28;20588;-62
2022/10/30 12:26:25;;;;;;;8.48;3.90;;;25.20;99.90;;;;;;5071917;28;20204;-63
2022/10/30 12:28:57;;;;;;;10.55;3.80;;;25.10;99.90;;;;;;5071822;28;20251;-62
2022/10/30 12:31:30;;;;;;;9.10;3.53;;;25.20;99.90;;;;;;5071749;28;20208;-62
2022/10/30 12:34:11;;;;;;;9.82;4.38;;;25.20;99.90;;;;;;5072215;28;20233;-63
2022/10/30 12:36:45;;;;;;;8.40;4.00;;;25.20;99.90;;;;;;5072283;28;20208;-62
2022/10/30 12:39:16;;;;;;;15.40;4.38;;;25.10;99.90;;;;;;5071732;28;20212;-63
2022/10/30 12:41:48;;;;;;;12.70;5.38;;;25.20;99.90;;;;;;5072148;28;20225;-61
2022/10/30 12:44:20;;;;;;;14.20;4.78;;;25.20;99.90;;;;;;5071931;28;20307;-61
2022/10/30 12:46:52;;;;;;;12.90;4.00;;;25.20;99.90;;;;;;5071689;28;20262;-59
2022/10/30 12:49:23;;;;;;;11.00;4.10;;;25.20;99.90;;;;;;5071081;28;20677;-60
2022/10/30 12:51:56;;;;;;;9.68;3.65;;;25.30;99.90;;;;;;5072711;28;20208;-60